createdAt,value
2018-09-14T00:00:26.224Z,28.12
2018-09-14T00:01:26.219Z,28.31
2018-09-14T00:02:26.220Z,28.22
2018-09-14T00:03:26.212Z,27.83
2018-09-14T00:04:26.208Z,27.73
2018-09-14T00:05:26.207Z,27.55
2018-09-14T00:06:26.201Z,28.31
2018-09-14T00:07:26.203Z,27.64
2018-09-14T00:08:26.234Z,27.36
2018-09-14T00:09:26.193Z,27.73
2018-09-14T00:10:26.192Z,27.64
2018-09-14T00:11:26.188Z,27.55
2018-09-14T00:12:26.181Z,27.26
2018-09-14T00:13:26.177Z,27.64
2018-09-14T00:14:26.178Z,27.16
2018-09-14T00:15:26.178Z,27.07
2018-09-14T00:16:26.169Z,27.36
2018-09-14T00:17:26.171Z,26.97
2018-09-14T00:18:26.162Z,26.68
2018-09-14T00:19:26.163Z,27.16
2018-09-14T00:20:26.155Z,26.60
2018-09-14T00:21:26.157Z,26.68
2018-09-14T00:22:26.154Z,27.16
2018-09-14T00:23:26.146Z,27.27
2018-09-14T00:24:26.140Z,27.45
2018-09-14T00:25:26.140Z,27.16
2018-09-14T00:26:26.143Z,27.26
2018-09-14T00:27:26.131Z,27.55
2018-09-14T00:28:26.132Z,27.55
2018-09-14T00:29:26.121Z,27.36
2018-09-14T00:30:26.123Z,27.07
2018-09-14T00:31:26.123Z,27.55
2018-09-14T00:32:26.121Z,27.64
2018-09-14T00:33:26.111Z,27.64
2018-09-14T00:34:26.110Z,27.36
2018-09-14T00:35:26.106Z,27.26
2018-09-14T00:36:26.119Z,27.45
2018-09-14T00:37:26.101Z,27.26
2018-09-14T00:38:26.092Z,27.36
2018-09-14T00:39:26.099Z,27.26
2018-09-14T00:40:26.091Z,27.16
2018-09-14T00:41:26.088Z,27.26
2018-09-14T00:42:26.089Z,27.26
2018-09-14T00:43:26.077Z,27.16
2018-09-14T00:44:26.072Z,27.26
2018-09-14T00:45:26.072Z,26.87
2018-09-14T00:46:26.070Z,26.68
2018-09-14T00:47:26.066Z,26.87
2018-09-14T00:48:26.092Z,26.78
2018-09-14T00:49:26.054Z,26.59
2018-09-14T00:50:26.056Z,26.78
2018-09-14T00:51:26.054Z,26.87
2018-09-14T00:52:26.048Z,26.87
2018-09-14T00:53:26.043Z,26.87
2018-09-14T00:54:26.040Z,26.97
2018-09-14T00:55:26.042Z,26.87
2018-09-14T00:56:26.034Z,26.87
2018-09-14T00:57:26.030Z,26.68
2018-09-14T00:58:26.026Z,26.87
2018-09-14T00:59:26.026Z,26.87
2018-09-14T01:00:26.020Z,26.87
2018-09-14T01:01:26.013Z,26.87
2018-09-14T01:02:26.015Z,26.87
2018-09-14T01:03:26.021Z,26.68
2018-09-14T01:04:25.999Z,26.78
2018-09-14T01:05:26.004Z,26.78
2018-09-14T01:06:25.997Z,26.40
2018-09-14T01:07:26.006Z,26.87
2018-09-14T01:08:25.991Z,26.78
2018-09-14T01:09:25.987Z,26.78
2018-09-14T01:10:25.984Z,26.87
2018-09-14T01:11:25.982Z,26.78
2018-09-14T01:12:25.980Z,26.78
2018-09-14T01:13:25.974Z,26.78
2018-09-14T01:14:25.968Z,26.78
2018-09-14T01:15:25.968Z,26.68
2018-09-14T01:16:25.961Z,26.68
2018-09-14T01:17:25.965Z,26.78
2018-09-14T01:18:25.956Z,26.68
2018-09-14T01:19:25.955Z,26.97
2018-09-14T01:20:25.950Z,26.50
2018-09-14T01:21:25.949Z,26.59
2018-09-14T01:22:25.943Z,26.59
2018-09-14T01:23:25.940Z,26.97
2018-09-14T01:24:25.934Z,26.87
2018-09-14T01:25:25.931Z,26.78
2018-09-14T01:26:25.929Z,26.89
2018-09-14T01:27:25.925Z,26.87
2018-09-14T01:28:25.920Z,26.68
2018-09-14T01:29:25.918Z,27.26
2018-09-14T01:30:25.914Z,26.87
2018-09-14T02:06:49.831Z,26.59
2018-09-14T02:07:49.798Z,26.68
2018-09-14T02:09:42.767Z,26.50
2018-09-14T02:10:42.739Z,26.59
2018-09-14T02:11:42.733Z,26.78
2018-09-14T02:12:42.724Z,26.50
2018-09-14T02:13:42.718Z,26.68
2018-09-14T02:14:42.710Z,26.78
2018-09-14T02:15:42.709Z,26.59
2018-09-14T02:16:42.707Z,26.50
2018-09-14T02:17:42.697Z,26.78
2018-09-14T02:18:42.694Z,26.78
2018-09-14T02:19:42.692Z,26.68
2018-09-14T02:20:42.684Z,26.68
2018-09-14T02:21:42.687Z,26.87
2018-09-14T02:22:42.675Z,26.68
2018-09-14T02:23:42.671Z,26.59
2018-09-14T02:24:42.671Z,26.59
2018-09-14T02:25:42.704Z,26.78
2018-09-14T02:26:42.664Z,26.59
2018-09-14T02:27:42.655Z,26.78
2018-09-14T02:28:42.654Z,26.50
2018-09-14T02:29:42.655Z,26.97
2018-09-14T02:30:42.651Z,27.26
2018-09-14T02:31:42.645Z,27.55
2018-09-14T02:32:42.641Z,27.36
2018-09-14T02:33:42.635Z,27.26
2018-09-14T02:34:42.636Z,28.31
2018-09-14T02:35:42.641Z,27.64
2018-09-14T02:36:42.630Z,27.45
2018-09-14T02:37:42.623Z,27.73
2018-09-14T02:38:42.624Z,27.83
2018-09-14T02:39:42.618Z,28.22
2018-09-14T02:40:42.616Z,28.59
2018-09-14T02:41:42.613Z,28.59
2018-09-14T02:42:42.609Z,28.59
2018-09-14T02:43:42.612Z,29.08
2018-09-14T02:44:42.600Z,28.98
2018-09-14T02:45:42.617Z,29.17
2018-09-14T02:46:42.602Z,29.46
2018-09-14T02:47:42.590Z,29.46
2018-09-14T02:48:42.598Z,29.27
2018-09-14T02:49:42.589Z,29.27
2018-09-14T02:50:42.585Z,29.46
2018-09-14T02:51:42.579Z,29.46
2018-09-14T02:52:42.577Z,29.36
2018-09-14T02:53:42.572Z,29.65
2018-09-14T02:54:42.575Z,29.65
2018-09-14T02:55:42.568Z,29.84
2018-09-14T02:56:42.566Z,29.74
2018-09-14T02:57:42.560Z,29.94
2018-09-14T02:58:42.562Z,30.03
2018-09-14T02:59:42.558Z,30.22
2018-09-14T03:00:42.560Z,30.22
2018-09-14T03:01:42.549Z,30.13
2018-09-14T03:02:42.542Z,30.61
2018-09-14T03:03:42.543Z,30.51
2018-09-14T03:04:42.538Z,30.32
2018-09-14T03:05:42.537Z,30.41
2018-09-14T03:06:42.539Z,30.32
2018-09-14T03:07:42.532Z,30.41
2018-09-14T03:08:42.525Z,30.22
2018-09-14T03:09:42.521Z,30.13
2018-09-14T03:10:42.517Z,30.32
2018-09-14T03:11:42.522Z,30.22
2018-09-14T03:12:42.512Z,30.32
2018-09-14T03:13:42.515Z,30.13
2018-09-14T03:14:42.514Z,30.13
2018-09-14T03:15:42.502Z,30.22
2018-09-14T03:16:42.520Z,30.32
2018-09-14T03:17:42.498Z,30.70
2018-09-14T03:18:42.491Z,30.70
2018-09-14T03:19:42.491Z,30.61
2018-09-14T03:20:42.490Z,30.90
2018-09-14T03:21:42.489Z,30.80
2018-09-14T03:22:42.478Z,30.70
2018-09-14T03:23:42.476Z,30.70
2018-09-14T03:24:42.480Z,30.51
2018-09-14T03:25:42.475Z,30.80
2018-09-14T03:26:42.468Z,30.70
2018-09-14T03:27:42.468Z,30.90
2018-09-14T03:28:43.213Z,30.90
2018-09-14T03:29:42.457Z,30.99
2018-09-14T03:30:42.453Z,31.27
2018-09-14T03:31:42.461Z,31.07
2018-09-14T03:32:42.455Z,31.27
2018-09-14T03:33:42.438Z,31.18
2018-09-14T03:34:42.440Z,31.37
2018-09-14T03:35:42.437Z,31.27
2018-09-14T03:36:42.435Z,31.74
2018-09-14T03:37:42.435Z,31.35
2018-09-14T03:38:42.427Z,31.37
2018-09-14T03:39:42.428Z,31.56
2018-09-14T03:40:42.422Z,31.56
2018-09-14T03:41:42.421Z,31.45
2018-09-14T03:42:42.421Z,31.35
2018-09-14T03:43:42.411Z,31.55
2018-09-14T03:44:42.409Z,31.55
2018-09-14T03:45:42.418Z,31.26
2018-09-14T03:46:42.403Z,31.07
2018-09-14T03:47:42.399Z,31.35
2018-09-14T03:48:42.393Z,31.35
2018-09-14T03:49:42.392Z,31.26
2018-09-14T03:50:42.389Z,31.16
2018-09-14T03:51:42.388Z,31.64
2018-09-14T03:52:42.390Z,31.26
2018-09-14T03:53:42.399Z,31.55
2018-09-14T03:54:42.378Z,31.26
2018-09-14T03:55:42.369Z,31.16
2018-09-14T03:56:42.371Z,31.16
2018-09-14T03:57:42.363Z,31.64
2018-09-14T03:58:42.360Z,31.55
2018-09-14T03:59:42.358Z,31.35
2018-09-14T04:00:42.359Z,31.26
2018-09-14T04:01:42.355Z,31.55
2018-09-14T04:02:42.352Z,31.26
2018-09-14T04:03:42.348Z,31.26
2018-09-14T04:04:42.340Z,31.07
2018-09-14T04:05:42.344Z,31.26
2018-09-14T04:06:42.336Z,30.98
2018-09-14T04:07:42.340Z,31.45
2018-09-14T04:08:42.326Z,31.35
2018-09-14T04:09:42.326Z,31.26
2018-09-14T04:10:42.321Z,31.45
2018-09-14T04:11:42.329Z,31.64
2018-09-14T04:12:42.312Z,31.55
2018-09-14T04:13:42.309Z,31.35
2018-09-14T04:14:42.310Z,31.35
2018-09-14T04:15:42.308Z,31.55
2018-09-14T04:16:42.300Z,31.74
2018-09-14T04:17:42.299Z,31.84
2018-09-14T04:18:42.324Z,31.74
2018-09-14T04:19:42.329Z,31.84
2018-09-14T04:20:42.337Z,31.84
2018-09-14T04:21:43.266Z,31.84
2018-09-14T04:22:42.353Z,31.84
2018-09-14T04:23:42.386Z,31.74
2018-09-14T04:24:42.370Z,31.84
2018-09-14T04:25:42.320Z,31.64
2018-09-14T04:26:42.277Z,31.84
2018-09-14T04:27:42.283Z,31.84
2018-09-14T04:28:42.294Z,31.64
2018-09-14T04:29:42.293Z,31.93
2018-09-14T04:30:42.270Z,32.31
2018-09-14T04:31:42.311Z,32.12
2018-09-14T04:32:42.313Z,32.21
2018-09-14T04:33:42.315Z,32.21
2018-09-14T04:34:42.280Z,32.21
2018-09-14T04:35:42.341Z,32.31
2018-09-14T04:36:42.239Z,32.50
2018-09-14T04:37:42.245Z,32.60
2018-09-14T04:38:42.287Z,33.07
2018-09-14T04:39:42.258Z,33.17
2018-09-14T04:40:42.270Z,33.56
2018-09-14T04:41:42.272Z,33.46
2018-09-14T04:42:42.275Z,33.46
2018-09-14T04:43:42.256Z,33.17
2018-09-14T04:44:42.295Z,33.56
2018-09-14T04:45:42.229Z,33.17
2018-09-14T04:46:42.305Z,33.07
2018-09-14T04:47:42.221Z,33.36
2018-09-14T04:48:42.213Z,33.17
2018-09-14T04:49:42.219Z,33.46
2018-09-14T04:50:42.230Z,33.17
2018-09-14T04:51:42.240Z,32.89
2018-09-14T04:52:42.243Z,33.36
2018-09-14T04:53:42.200Z,33.27
2018-09-14T04:54:42.255Z,33.56
2018-09-14T04:55:42.262Z,33.36
2018-09-14T04:56:42.179Z,33.36
2018-09-14T04:57:42.167Z,33.56
2018-09-14T04:58:42.178Z,33.46
2018-09-14T04:59:42.181Z,33.65
2018-09-14T05:00:42.187Z,33.75
2018-09-14T05:01:42.198Z,34.13
2018-09-14T05:02:42.204Z,34.13
2018-09-14T05:03:42.195Z,34.13
2018-09-14T05:04:42.162Z,33.94
2018-09-14T05:05:42.198Z,34.61
2018-09-14T05:06:42.178Z,34.61
2018-09-14T05:07:42.203Z,34.99
2018-09-14T05:08:42.161Z,34.89
2018-09-14T05:09:42.183Z,35.08
2018-09-14T05:10:42.156Z,35.66
2018-09-14T05:11:42.167Z,35.47
2018-09-14T05:12:42.165Z,35.47
2018-09-14T05:13:42.119Z,35.37
2018-09-14T05:14:42.179Z,35.47
2018-09-14T05:15:42.136Z,36.04
2018-09-14T05:16:42.129Z,36.06
2018-09-14T05:17:42.103Z,35.85
2018-09-14T05:18:42.106Z,36.33
2018-09-14T05:19:42.112Z,36.52
2018-09-14T05:20:42.115Z,36.44
2018-09-14T05:21:42.111Z,37.11
2018-09-14T05:22:42.101Z,37.38
2018-09-14T05:23:42.132Z,37.78
2018-09-14T05:24:42.146Z,38.74
2018-09-14T05:25:42.149Z,38.74
2018-09-14T05:26:42.156Z,39.22
2018-09-14T05:27:42.075Z,39.69
2018-09-14T05:28:42.064Z,39.86
2018-09-14T05:29:42.074Z,39.58
2018-09-14T05:30:42.079Z,41.01
2018-09-14T05:31:42.087Z,40.82
2018-09-14T05:32:42.048Z,41.22
2018-09-14T05:33:42.038Z,41.68
2018-09-14T05:34:42.037Z,41.89
2018-09-14T05:35:42.032Z,42.76
2018-09-14T05:36:42.020Z,44.19
2018-09-14T05:37:42.023Z,44.19
2018-09-14T05:38:42.042Z,44.57
2018-09-14T05:39:42.017Z,45.62
2018-09-14T05:40:42.019Z,46.10
2018-09-14T05:41:42.011Z,46.58
2018-09-14T05:42:42.008Z,48.02
2018-09-14T05:43:42.034Z,48.49
2018-09-14T05:44:41.998Z,51.07
2018-09-14T05:45:42.052Z,51.27
2018-09-14T05:46:42.007Z,52.03
2018-09-14T05:47:41.990Z,52.99
2018-09-14T05:48:41.989Z,53.18
2018-09-14T05:49:42.692Z,53.75
2018-09-14T05:50:41.984Z,55.47
2018-09-14T05:51:42.027Z,56.05
2018-09-14T05:52:42.026Z,55.57
2018-09-14T05:53:42.021Z,56.43
2018-09-14T05:54:42.033Z,57.77
2018-09-14T05:55:42.038Z,58.44
2018-09-14T05:56:42.046Z,58.73
2018-09-14T05:57:42.053Z,57.97
2018-09-14T05:58:41.976Z,57.68
2018-09-14T05:59:41.967Z,57.68
2018-09-14T06:00:41.969Z,60.55
2018-09-14T06:01:41.957Z,60.74
2018-09-14T06:02:41.947Z,61.60
2018-09-14T06:03:41.944Z,62.08
2018-09-14T06:04:41.945Z,61.98
2018-09-14T06:05:41.938Z,62.55
2018-09-14T06:06:41.988Z,63.80
2018-09-14T06:07:41.949Z,63.83
2018-09-14T06:08:41.928Z,64.18
2018-09-14T06:09:41.921Z,65.94
2018-09-14T06:10:41.921Z,68.23
2018-09-14T06:11:41.920Z,69.67
2018-09-14T06:12:41.914Z,72.73
2018-09-14T06:13:41.911Z,74.84
2018-09-14T06:14:41.910Z,76.18
2018-09-14T06:15:41.906Z,78.28
2018-09-14T06:16:41.905Z,79.05
2018-09-14T06:17:41.903Z,79.75
2018-09-14T06:18:41.899Z,80.90
2018-09-14T06:19:41.895Z,83.30
2018-09-14T06:20:41.891Z,86.46
2018-09-14T06:21:41.890Z,90.19
2018-09-14T06:22:41.916Z,92.68
2018-09-14T06:23:41.885Z,93.35
2018-09-14T06:24:41.883Z,92.01
2018-09-14T06:25:41.880Z,93.54
2018-09-14T06:26:41.880Z,92.58
2018-09-14T06:27:41.880Z,92.44
2018-09-14T06:28:41.872Z,93.35
2018-09-14T06:29:41.874Z,93.30
2018-09-14T06:30:41.871Z,93.64
2018-09-14T06:31:41.870Z,92.40
2018-09-14T06:32:41.868Z,93.16
2018-09-14T06:33:41.866Z,93.35
2018-09-14T06:34:41.865Z,95.36
2018-09-14T06:35:41.887Z,93.64
2018-09-14T06:36:41.860Z,92.49
2018-09-14T06:37:41.862Z,93.26
2018-09-14T06:38:41.869Z,92.30
2018-09-14T06:39:41.902Z,90.96
2018-09-14T06:40:41.854Z,91.92
2018-09-14T06:41:41.851Z,92.68
2018-09-14T06:42:41.848Z,92.30
2018-09-14T06:43:41.847Z,92.49
2018-09-14T06:44:41.842Z,91.63
2018-09-14T06:45:41.842Z,94.50
2018-09-14T06:46:41.841Z,93.16
2018-09-14T06:47:41.840Z,94.50
2018-09-14T06:48:41.836Z,94.79
2018-09-14T06:49:41.832Z,92.78
2018-09-14T06:50:41.835Z,92.97
2018-09-14T06:51:41.831Z,93.59
2018-09-14T06:52:41.828Z,95.56
2018-09-14T06:53:41.829Z,93.83
2018-09-14T06:54:41.824Z,94.31
2018-09-14T06:55:41.835Z,98.62
2018-09-14T06:56:41.820Z,96.22
2018-09-14T06:57:41.819Z,95.84
2018-09-14T06:58:41.817Z,96.08
2018-09-14T06:59:41.817Z,94.35
2018-09-14T07:00:41.815Z,97.33
2018-09-14T07:01:41.811Z,97.14
2018-09-14T07:02:41.810Z,95.89
2018-09-14T07:03:41.805Z,93.69
2018-09-14T07:04:41.803Z,94.26
2018-09-14T07:05:41.804Z,95.70
2018-09-14T07:06:41.813Z,95.41
2018-09-14T07:07:41.797Z,95.89
2018-09-14T07:08:41.793Z,97.42
2018-09-14T07:09:41.797Z,96.75
2018-09-14T07:10:41.792Z,97.23
2018-09-14T07:11:41.795Z,96.66
2018-09-14T07:12:41.787Z,97.23
2018-09-14T07:13:41.784Z,98.76
2018-09-14T07:14:41.784Z,99.99
2018-09-14T07:15:41.782Z,99.99
2018-09-14T07:16:41.782Z,99.99
2018-09-14T07:17:41.775Z,99.24
2018-09-14T07:18:41.779Z,99.43
2018-09-14T07:19:41.776Z,99.99
2018-09-14T07:20:41.774Z,99.99
2018-09-14T07:21:41.861Z,99.99
2018-09-14T07:22:41.769Z,99.99
2018-09-14T07:23:41.766Z,99.99
2018-09-14T07:24:41.850Z,99.99
2018-09-14T07:25:41.787Z,99.99
2018-09-14T07:26:41.796Z,99.99
2018-09-14T07:27:41.758Z,99.99
2018-09-14T07:28:41.759Z,99.99
2018-09-14T07:29:41.765Z,99.99
2018-09-14T07:30:41.788Z,99.99
2018-09-14T07:31:41.768Z,99.99
2018-09-14T07:32:41.756Z,99.99
2018-09-14T07:33:41.758Z,99.99
2018-09-14T07:34:41.752Z,99.99
2018-09-14T07:35:41.754Z,99.99
2018-09-14T07:36:41.754Z,99.99
2018-09-14T07:37:41.747Z,99.99
2018-09-14T07:38:41.752Z,99.99
2018-09-14T07:39:41.749Z,99.99
2018-09-14T07:40:41.750Z,99.99
2018-09-14T07:41:41.750Z,99.99
2018-09-14T07:42:41.745Z,99.99
2018-09-14T07:43:41.753Z,99.99
2018-09-14T07:44:41.737Z,99.99
2018-09-14T07:45:41.743Z,99.99
2018-09-14T07:46:41.746Z,99.99
2018-09-14T07:47:41.742Z,99.99
2018-09-14T07:48:41.755Z,99.99
2018-09-14T07:49:41.756Z,99.99
2018-09-14T07:50:41.736Z,99.99
2018-09-14T07:51:41.738Z,99.99
2018-09-14T07:52:41.736Z,99.99
2018-09-14T07:53:41.734Z,99.99
2018-09-14T07:54:41.733Z,99.99
2018-09-14T07:55:41.733Z,99.99
2018-09-14T07:56:41.725Z,99.99
2018-09-14T07:57:41.728Z,99.99
2018-09-14T07:58:41.729Z,99.99
2018-09-14T07:59:41.719Z,99.99
2018-09-14T08:00:41.740Z,99.99
2018-09-14T08:01:41.737Z,99.99
2018-09-14T08:02:41.746Z,99.99
2018-09-14T08:03:41.717Z,99.99
2018-09-14T08:04:41.727Z,99.99
2018-09-14T08:05:41.725Z,99.99
2018-09-14T08:06:41.733Z,99.99
2018-09-14T08:07:41.723Z,99.99
2018-09-14T08:08:41.721Z,99.99
2018-09-14T08:09:41.723Z,99.99
2018-09-14T08:10:41.723Z,99.99
2018-09-14T08:11:41.720Z,99.99
2018-09-14T08:12:41.728Z,99.99
2018-09-14T08:13:41.720Z,99.99
2018-09-14T08:14:41.730Z,99.99
2018-09-14T08:15:41.725Z,99.99
2018-09-14T08:16:41.733Z,99.99
2018-09-14T08:17:41.733Z,99.99
2018-09-14T08:18:41.726Z,99.99
2018-09-14T08:19:41.732Z,99.99
2018-09-14T08:20:41.732Z,99.99
2018-09-14T08:21:41.861Z,99.99
2018-09-14T08:22:41.731Z,99.99
2018-09-14T08:23:41.742Z,99.99
2018-09-14T08:24:41.733Z,99.99
2018-09-14T08:25:41.743Z,99.99
2018-09-14T08:26:41.778Z,99.99
2018-09-14T08:27:41.753Z,99.99
2018-09-14T08:28:41.760Z,99.99
2018-09-14T08:29:41.757Z,99.99
2018-09-14T08:30:41.761Z,99.99
2018-09-14T08:31:41.778Z,99.99
2018-09-14T08:32:41.775Z,99.99
2018-09-14T08:33:41.777Z,99.99
2018-09-14T08:34:41.782Z,99.99
2018-09-14T08:35:41.791Z,99.99
2018-09-14T08:36:41.793Z,99.99
2018-09-14T08:37:41.805Z,99.99
2018-09-14T08:38:41.802Z,99.99
2018-09-14T08:39:41.806Z,99.99
2018-09-14T08:40:41.814Z,99.99
2018-09-14T08:41:41.821Z,99.99
2018-09-14T08:42:41.825Z,99.99
2018-09-14T08:43:41.830Z,99.99
2018-09-14T08:44:41.838Z,99.99
2018-09-14T08:45:41.841Z,99.99
2018-09-14T08:46:41.847Z,99.99
2018-09-14T08:47:41.863Z,99.99
2018-09-14T08:48:41.852Z,99.99
2018-09-14T08:49:41.863Z,99.99
2018-09-14T08:50:41.861Z,99.99
2018-09-14T08:51:41.871Z,99.99
2018-09-14T08:52:41.873Z,99.99
2018-09-14T08:53:41.972Z,99.99
2018-09-14T08:54:41.877Z,99.99
2018-09-14T08:55:41.887Z,99.99
2018-09-14T08:56:41.891Z,99.99
2018-09-14T08:57:41.893Z,99.99
2018-09-14T08:58:41.897Z,99.99
2018-09-14T08:59:41.900Z,99.99
2018-09-14T09:00:42.008Z,99.99
2018-09-14T09:01:41.920Z,99.99
2018-09-14T09:02:41.908Z,99.99
2018-09-14T09:03:41.921Z,99.99
2018-09-14T09:04:41.916Z,99.99
2018-09-14T09:05:41.921Z,99.99
2018-09-14T09:06:41.925Z,99.99
2018-09-14T09:07:41.932Z,99.99
2018-09-14T09:08:41.930Z,99.99
2018-09-14T09:09:41.927Z,99.99
2018-09-14T09:10:41.939Z,99.99
2018-09-14T09:11:41.943Z,99.99
2018-09-14T09:12:41.947Z,99.99
2018-09-14T09:13:41.953Z,99.99
2018-09-14T09:14:41.949Z,99.99
2018-09-14T09:15:41.955Z,99.99
2018-09-14T09:16:41.958Z,99.99
2018-09-14T09:17:42.005Z,99.99
2018-09-14T09:18:41.965Z,99.99
2018-09-14T09:19:41.967Z,99.99
2018-09-14T09:20:41.970Z,99.99
2018-09-14T09:21:41.983Z,99.99
2018-09-14T09:22:41.975Z,99.99
2018-09-14T09:23:41.980Z,99.99
2018-09-14T09:24:41.983Z,99.99
2018-09-14T09:25:41.984Z,99.99
2018-09-14T09:26:41.991Z,99.99
2018-09-14T09:27:41.991Z,99.99
2018-09-14T09:28:41.995Z,99.99
2018-09-14T09:29:41.996Z,99.99
2018-09-14T09:30:42.000Z,99.99
2018-09-14T09:31:42.008Z,99.99
2018-09-14T09:32:42.005Z,99.99
2018-09-14T09:33:42.007Z,99.99
2018-09-14T09:34:42.015Z,99.99
2018-09-14T09:35:42.016Z,99.99
2018-09-14T09:36:42.021Z,99.99
2018-09-14T09:37:42.015Z,99.99
2018-09-14T09:38:42.022Z,99.99
2018-09-14T09:39:42.028Z,99.99
2018-09-14T09:40:42.029Z,99.99
2018-09-14T09:41:42.036Z,99.99
2018-09-14T09:42:42.034Z,99.99
2018-09-14T09:43:42.135Z,99.99
2018-09-14T09:44:42.044Z,99.99
2018-09-14T09:45:42.050Z,99.99
2018-09-14T09:46:42.060Z,99.99
2018-09-14T09:47:42.060Z,99.99
2018-09-14T09:48:42.066Z,99.99
2018-09-14T09:49:42.071Z,99.99
2018-09-14T09:50:42.073Z,97.33
2018-09-14T09:51:42.085Z,98.20
2018-09-14T09:52:42.093Z,94.81
2018-09-14T09:53:42.096Z,97.23
2018-09-14T09:54:42.101Z,95.78
2018-09-14T09:55:42.112Z,96.75
2018-09-14T09:56:42.180Z,93.35
2018-09-14T09:57:42.127Z,92.29
2018-09-14T09:58:42.120Z,90.88
2018-09-14T09:59:42.140Z,87.66
2018-09-14T10:00:42.149Z,85.46
2018-09-14T10:01:42.157Z,84.70
2018-09-14T10:02:42.168Z,88.24
2018-09-14T10:03:42.198Z,85.11
2018-09-14T10:04:42.198Z,81.71
2018-09-14T10:05:42.189Z,80.13
2018-09-14T10:06:42.209Z,76.92
2018-09-14T10:07:42.208Z,79.28
2018-09-14T10:08:42.215Z,81.67
2018-09-14T10:09:42.250Z,81.94
2018-09-14T10:10:42.266Z,80.17
2018-09-14T10:11:42.253Z,82.40
2018-09-14T10:12:42.286Z,80.56
2018-09-14T10:13:42.268Z,81.98
2018-09-14T10:14:42.286Z,84.45
2018-09-14T10:15:42.285Z,82.39
2018-09-14T10:16:42.306Z,81.59
2018-09-14T10:17:42.321Z,79.41
2018-09-14T10:18:42.329Z,79.90
2018-09-14T10:19:42.345Z,78.83
2018-09-14T10:20:42.425Z,77.91
2018-09-14T10:21:42.434Z,78.05
2018-09-14T10:22:42.382Z,82.50
2018-09-14T10:23:42.398Z,84.92
2018-09-14T10:24:42.403Z,87.40
2018-09-14T10:25:42.417Z,88.09
2018-09-14T10:26:42.449Z,87.49
2018-09-14T10:27:42.441Z,83.64
2018-09-14T10:28:42.442Z,87.61
2018-09-14T10:29:42.451Z,84.16
2018-09-14T10:30:42.469Z,79.61
2018-09-14T10:31:42.485Z,79.24
2018-09-14T10:32:42.491Z,78.16
2018-09-14T10:33:42.506Z,75.56
2018-09-14T10:34:42.524Z,78.13
2018-09-14T10:35:42.532Z,78.52
2018-09-14T10:36:42.544Z,77.99
2018-09-14T10:37:42.556Z,73.95
2018-09-14T10:38:42.567Z,75.30
2018-09-14T10:39:42.594Z,76.44
2018-09-14T10:40:42.638Z,78.56
2018-09-14T10:41:42.608Z,78.92
2018-09-14T10:42:42.645Z,76.24
2018-09-14T10:43:42.632Z,76.25
2018-09-14T10:44:42.647Z,73.56
2018-09-14T10:45:42.666Z,72.51
2018-09-14T10:46:42.664Z,75.42
2018-09-14T10:47:42.684Z,79.02
2018-09-14T10:48:42.701Z,75.58
2018-09-14T10:49:42.710Z,77.76
2018-09-14T10:50:42.724Z,80.88
2018-09-14T10:51:42.739Z,84.64
2018-09-14T10:52:42.748Z,85.58
2018-09-14T10:54:10.401Z,88.63
2018-09-14T10:54:42.800Z,90.42
2018-09-14T10:55:42.784Z,90.27
2018-09-14T10:56:42.791Z,90.41
2018-09-14T10:57:42.806Z,90.70
2018-09-14T10:58:42.820Z,88.91
2018-09-14T10:59:42.823Z,90.32
2018-09-14T11:00:42.834Z,92.74
2018-09-14T11:01:42.847Z,92.69
2018-09-14T11:02:42.846Z,93.23
2018-09-14T11:03:42.862Z,92.49
2018-09-14T11:04:42.856Z,94.67
2018-09-14T11:05:42.858Z,94.24
2018-09-14T11:06:42.957Z,93.37
2018-09-14T11:07:42.877Z,93.37
2018-09-14T11:08:42.890Z,92.93
2018-09-14T11:09:42.887Z,92.69
2018-09-14T11:10:42.889Z,94.24
2018-09-14T11:11:42.900Z,97.77
2018-09-14T11:12:42.967Z,99.02
2018-09-14T11:13:42.906Z,98.78
2018-09-14T11:14:42.916Z,96.94
2018-09-14T11:15:42.961Z,96.94
2018-09-14T11:16:42.920Z,97.91
2018-09-14T11:17:42.921Z,97.24
2018-09-14T11:18:42.977Z,96.84
2018-09-14T11:19:42.937Z,97.24
2018-09-14T11:20:43.002Z,96.46
2018-09-14T11:21:42.944Z,98.44
2018-09-14T11:22:42.946Z,99.30
2018-09-14T11:23:42.945Z,99.99
2018-09-14T11:24:43.045Z,99.74
2018-09-14T11:25:42.982Z,99.99
2018-09-14T11:26:42.954Z,99.99
2018-09-14T11:27:42.963Z,99.99
2018-09-14T11:28:42.962Z,99.99
2018-09-14T11:29:42.979Z,99.99
2018-09-14T11:30:42.988Z,99.99
2018-09-14T11:31:42.966Z,99.99
2018-09-14T11:32:42.989Z,99.99
2018-09-14T11:33:43.018Z,99.99
2018-09-14T11:34:43.037Z,99.79
2018-09-14T11:35:42.982Z,99.99
2018-09-14T11:36:42.979Z,99.99
2018-09-14T11:37:43.015Z,99.99
2018-09-14T11:38:43.067Z,99.99
2018-09-14T11:39:42.997Z,99.99
2018-09-14T11:40:42.986Z,99.99
2018-09-14T11:41:42.993Z,96.08
2018-09-14T11:42:42.999Z,94.77
2018-09-14T11:43:42.996Z,96.36
2018-09-14T11:44:43.002Z,98.00
2018-09-14T11:45:42.996Z,95.30
2018-09-14T11:46:43.004Z,92.49
2018-09-14T11:47:43.010Z,92.65
2018-09-14T11:48:43.011Z,93.85
2018-09-14T11:49:43.016Z,95.50
2018-09-14T11:50:43.029Z,95.11
2018-09-14T11:51:43.025Z,96.51
2018-09-14T11:52:43.031Z,96.84
2018-09-14T11:53:43.033Z,93.80
2018-09-14T11:54:43.038Z,89.59
2018-09-14T11:55:43.051Z,89.41
2018-09-14T11:56:43.058Z,91.15
2018-09-14T11:57:43.053Z,90.91
2018-09-14T11:58:43.057Z,90.91
2018-09-14T11:59:43.060Z,89.49
2018-09-14T12:00:43.055Z,87.20
2018-09-14T12:01:43.071Z,81.90
2018-09-14T12:02:43.075Z,79.18
2018-09-14T12:03:43.081Z,80.94
2018-09-14T12:04:43.095Z,83.05
2018-09-14T12:05:43.095Z,85.72
2018-09-14T12:06:43.105Z,87.95
2018-09-14T12:07:43.105Z,86.78
2018-09-14T12:08:43.102Z,86.15
2018-09-14T12:09:43.119Z,83.00
2018-09-14T12:10:43.126Z,85.72
2018-09-14T12:11:43.133Z,87.81
2018-09-14T12:12:43.144Z,86.88
2018-09-14T12:13:43.217Z,86.49
2018-09-14T12:14:43.141Z,86.44
2018-09-14T12:15:43.154Z,85.66
2018-09-14T12:16:43.160Z,85.82
2018-09-14T12:17:43.163Z,87.03
2018-09-14T12:18:43.170Z,90.13
2018-09-14T12:19:43.175Z,90.95
2018-09-14T12:20:43.191Z,93.95
2018-09-14T12:21:43.188Z,97.19
2018-09-14T12:22:43.192Z,97.57
2018-09-14T12:23:43.195Z,97.33
2018-09-14T12:24:43.200Z,99.99
2018-09-14T12:25:43.208Z,99.99
2018-09-14T12:26:43.209Z,99.99
2018-09-14T12:27:43.215Z,99.99
2018-09-14T12:28:43.221Z,99.99
2018-09-14T12:29:43.218Z,99.99
2018-09-14T12:30:43.226Z,99.99
2018-09-14T12:31:43.233Z,99.99
2018-09-14T12:32:43.231Z,99.99
2018-09-14T12:33:43.236Z,99.99
2018-09-14T12:34:43.239Z,99.99
2018-09-14T12:35:43.312Z,99.99
2018-09-14T12:36:43.242Z,99.99
2018-09-14T12:37:43.254Z,99.99
2018-09-14T12:38:43.250Z,99.99
2018-09-14T12:39:43.257Z,99.99
2018-09-14T12:40:43.251Z,99.99
2018-09-14T12:41:43.261Z,99.99
2018-09-14T12:42:43.267Z,99.99
2018-09-14T12:43:43.267Z,99.99
2018-09-14T12:44:43.267Z,99.99
2018-09-14T12:45:43.275Z,99.99
2018-09-14T12:46:43.270Z,99.99
2018-09-14T12:47:43.277Z,99.99
2018-09-14T12:48:43.300Z,99.99
2018-09-14T12:49:43.277Z,99.99
2018-09-14T12:50:43.280Z,99.99
2018-09-14T12:51:43.280Z,99.99
2018-09-14T12:52:43.289Z,99.99
2018-09-14T12:53:43.282Z,99.99
2018-09-14T12:54:43.282Z,99.99
2018-09-14T12:55:43.284Z,99.99
2018-09-14T12:56:43.283Z,99.99
2018-09-14T12:57:43.287Z,99.99
2018-09-14T12:58:43.287Z,99.99
2018-09-14T12:59:43.289Z,99.99
2018-09-14T13:00:43.292Z,99.99
2018-09-14T13:01:43.291Z,99.99
2018-09-14T13:02:43.290Z,99.99
2018-09-14T13:03:43.293Z,99.99
2018-09-14T13:04:43.290Z,99.99
2018-09-14T13:05:43.295Z,99.99
2018-09-14T13:06:43.296Z,97.91
2018-09-14T13:07:43.296Z,97.91
2018-09-14T13:08:43.295Z,99.74
2018-09-14T13:09:43.296Z,98.29
2018-09-14T13:10:43.296Z,97.14
2018-09-14T13:11:43.299Z,99.31
2018-09-14T13:12:43.299Z,99.99
2018-09-14T13:13:43.297Z,97.86
2018-09-14T13:14:43.349Z,97.19
2018-09-14T13:15:43.305Z,99.99
2018-09-14T13:16:43.302Z,98.54
2018-09-14T13:17:43.305Z,97.28
2018-09-14T13:18:43.301Z,99.50
2018-09-14T13:19:43.300Z,98.15
2018-09-14T13:20:43.300Z,98.97
2018-09-14T13:21:43.295Z,99.26
2018-09-14T13:22:43.308Z,97.19
2018-09-14T13:23:43.304Z,99.21
2018-09-14T13:24:43.306Z,97.77
2018-09-14T13:25:43.306Z,96.80
2018-09-14T13:26:43.311Z,98.63
2018-09-14T13:27:43.310Z,98.63
2018-09-14T13:28:43.299Z,98.73